Terminal Aerodrome Forecast
Issued by NWS Albany, NY

Home | Current Version | Previous Version | Text Only | Print | Product List | Glossary On
Versions: 1 2 3 4 5 6 7 8 9 10 11 12 13 14 15 16 17 18 19 20
000
FTUS41 KALY 270520
TAFPOU
TAF
KPOU 270520Z 2706/2806 12004KT P6SM VCSH OVC011
      TEMPO 2709/2711 5SM -RA BR OVC011
     FM271100 09004KT 2SM -RA BR OVC009
     FM271800 VRB03KT P6SM OVC010 PROB30 2718/2722 4SM -RA OVC006
     FM280000 00000KT 5SM BR OVC006=

USA.gov is the U.S. government's official web portal to all federal, state and local government web resources and services.